createdAt,value
2022-10-11T00:00:59.172Z,44.00
2022-10-11T00:03:35.159Z,49.00
2022-10-11T00:06:05.750Z,51.90
2022-10-11T00:08:34.273Z,53.90
2022-10-11T00:11:06.857Z,50.90
2022-10-11T00:13:35.622Z,49.90
2022-10-11T00:16:08.701Z,52.30
2022-10-11T00:18:36.936Z,50.70
2022-10-11T00:21:08.439Z,54.10
2022-10-11T00:23:37.052Z,55.80
2022-10-11T00:26:08.274Z,59.50
2022-10-11T00:28:37.295Z,60.40
2022-10-11T00:31:11.217Z,54.50
2022-10-11T00:33:39.742Z,55.40
2022-10-11T00:36:08.984Z,48.80
2022-10-11T00:38:37.449Z,47.90
2022-10-11T00:41:05.516Z,42.70
2022-10-11T00:43:34.124Z,41.40
2022-10-11T00:46:04.874Z,38.10
2022-10-11T00:48:50.949Z,37.00
2022-10-11T00:51:43.629Z,35.30
2022-10-11T00:54:15.759Z,34.60
2022-10-11T00:56:49.292Z,37.50
2022-10-11T00:59:23.469Z,38.70
2022-10-11T01:01:52.204Z,38.30
2022-10-11T01:04:20.393Z,37.70
2022-10-11T01:06:50.780Z,36.70
2022-10-11T01:09:20.283Z,35.60
2022-10-11T01:11:50.703Z,36.00
2022-10-11T01:15:06.563Z,31.10
2022-10-11T01:18:07.266Z,29.70
2022-10-11T01:20:49.821Z,31.50
2022-10-11T01:23:32.873Z,31.60
2022-10-11T01:26:16.118Z,30.70
2022-10-11T01:28:59.450Z,32.70
2022-10-11T01:31:45.953Z,32.70
2022-10-11T01:34:15.641Z,29.90
2022-10-11T01:37:17.371Z,28.40
2022-10-11T01:39:54.100Z,31.60
2022-10-11T01:42:23.493Z,31.60
2022-10-11T01:44:52.203Z,31.80
2022-10-11T01:47:21.546Z,31.80
2022-10-11T01:49:58.096Z,32.10
2022-10-11T01:55:29.275Z,33.80
2022-10-11T01:58:37.730Z,38.10
2022-10-11T02:02:11.009Z,37.40
2022-10-11T02:04:52.606Z,39.60
2022-10-11T02:07:38.949Z,40.60
2022-10-11T02:10:28.013Z,38.50
2022-10-11T02:13:26.960Z,37.80
2022-10-11T02:15:58.532Z,40.50
2022-10-11T02:18:32.450Z,40.40
2022-10-11T02:21:03.797Z,40.00
2022-10-11T02:23:38.147Z,43.80
2022-10-11T02:26:09.854Z,35.50
2022-10-11T02:28:41.938Z,34.60
2022-10-11T02:31:12.540Z,35.60
2022-10-11T02:34:00.674Z,36.00
2022-10-11T02:36:43.199Z,33.40
2022-10-11T02:39:23.269Z,31.40
2022-10-11T02:41:53.293Z,33.00
2022-10-11T02:44:32.408Z,30.20
2022-10-11T02:47:01.615Z,28.90
2022-10-11T02:49:31.527Z,29.20
2022-10-11T02:51:59.592Z,29.00
2022-10-11T02:54:27.488Z,27.90
2022-10-11T02:56:55.276Z,28.30
2022-10-11T02:59:23.315Z,25.70
2022-10-11T03:01:51.336Z,26.60
2022-10-11T03:04:19.242Z,25.80
2022-10-11T03:06:47.174Z,24.90
2022-10-11T03:09:15.374Z,25.80
2022-10-11T03:11:43.353Z,26.50
2022-10-11T03:14:11.324Z,24.40
2022-10-11T03:16:39.259Z,23.40
2022-10-11T03:19:07.205Z,25.20
2022-10-11T03:21:36.055Z,25.20
2022-10-11T03:24:04.339Z,25.10
2022-10-11T03:26:32.182Z,25.20
2022-10-11T03:29:00.094Z,25.20
2022-10-11T03:31:28.038Z,24.30
2022-10-11T03:33:55.966Z,22.50
2022-10-11T03:36:23.927Z,23.50
2022-10-11T03:38:51.880Z,25.60
2022-10-11T03:41:19.693Z,22.90
2022-10-11T03:43:47.629Z,23.10
2022-10-11T03:46:15.710Z,25.00
2022-10-11T03:48:43.642Z,25.20
2022-10-11T03:51:13.223Z,26.50
2022-10-11T03:53:41.880Z,27.60
2022-10-11T03:56:10.085Z,26.80
2022-10-11T03:58:38.268Z,26.50
2022-10-11T04:01:06.206Z,27.60
2022-10-11T04:03:34.646Z,26.50
2022-10-11T04:06:03.050Z,27.50
2022-10-11T04:08:31.272Z,27.30
2022-10-11T04:10:59.089Z,26.10
2022-10-11T04:13:26.954Z,28.70
2022-10-11T04:15:54.885Z,28.90
2022-10-11T04:18:22.740Z,28.40
2022-10-11T04:20:50.606Z,31.50
2022-10-11T04:23:18.579Z,30.50
2022-10-11T04:25:48.411Z,35.90
2022-10-11T04:28:16.391Z,31.80
2022-10-11T04:30:44.295Z,32.70
2022-10-11T04:33:12.235Z,31.80
2022-10-11T04:35:40.433Z,30.50
2022-10-11T04:38:08.691Z,29.90
2022-10-11T04:40:37.125Z,29.20
2022-10-11T04:43:05.114Z,28.70
2022-10-11T04:45:33.452Z,29.60
2022-10-11T04:48:03.350Z,27.80
2022-10-11T04:50:31.126Z,28.90
2022-10-11T04:52:59.084Z,26.50
2022-10-11T04:55:27.192Z,26.10
2022-10-11T04:57:55.850Z,25.40
2022-10-11T05:00:23.741Z,25.10
2022-10-11T05:02:53.079Z,26.50
2022-10-11T05:05:20.833Z,25.90
2022-10-11T05:07:48.705Z,25.20
2022-10-11T05:10:16.679Z,24.00
2022-10-11T05:12:44.545Z,21.80
2022-10-11T05:15:12.504Z,22.90
2022-10-11T05:17:40.515Z,23.10
2022-10-11T05:20:08.697Z,25.50
2022-10-11T05:22:36.449Z,23.60
2022-10-11T05:25:05.046Z,25.80
2022-10-11T05:27:32.963Z,23.70
2022-10-11T05:30:00.951Z,24.20
2022-10-11T05:32:29.765Z,27.10
2022-10-11T05:34:57.537Z,25.80
2022-10-11T05:37:25.554Z,24.50
2022-10-11T05:39:53.969Z,26.00
2022-10-11T05:42:21.710Z,25.50
2022-10-11T05:44:49.478Z,25.00
2022-10-11T05:47:17.252Z,26.90
2022-10-11T05:49:45.041Z,29.20
2022-10-11T05:52:13.556Z,27.30
2022-10-11T05:54:44.137Z,33.20
2022-10-11T05:57:11.885Z,34.70
2022-10-11T05:59:39.848Z,33.00
2022-10-11T06:02:12.578Z,34.30
2022-10-11T06:04:40.494Z,35.50
2022-10-11T06:07:08.267Z,38.30
2022-10-11T06:09:36.288Z,37.60
2022-10-11T06:12:04.270Z,37.80
2022-10-11T06:14:32.379Z,34.30
2022-10-11T06:17:00.284Z,34.90
2022-10-11T06:19:28.047Z,28.50
2022-10-11T06:21:55.925Z,37.60
2022-10-11T06:24:23.742Z,34.40
2022-10-11T06:26:51.920Z,36.60
2022-10-11T06:29:19.827Z,38.20
2022-10-11T06:31:48.617Z,34.60
2022-10-11T06:34:16.467Z,36.20
2022-10-11T06:36:44.348Z,38.40
2022-10-11T06:39:12.178Z,38.50
2022-10-11T06:41:39.953Z,40.10
2022-10-11T06:44:14.168Z,42.10
2022-10-11T06:46:42.575Z,37.30
2022-10-11T06:49:10.358Z,41.70
2022-10-11T06:51:38.120Z,44.70
2022-10-11T06:54:06.059Z,45.10
2022-10-11T06:56:33.972Z,42.00
2022-10-11T06:59:03.526Z,44.30
2022-10-11T07:01:32.830Z,43.00
2022-10-11T07:04:01.779Z,46.00
2022-10-11T07:06:30.953Z,39.10
2022-10-11T07:09:00.448Z,41.80
2022-10-11T07:11:29.583Z,47.90
2022-10-11T07:14:01.764Z,48.20
2022-10-11T07:16:30.208Z,44.50
2022-10-11T07:19:01.132Z,45.10
2022-10-11T07:21:31.773Z,46.60
2022-10-11T07:24:01.066Z,45.20
2022-10-11T07:26:33.745Z,43.40
2022-10-11T07:29:06.654Z,41.80
2022-10-11T07:31:37.476Z,40.90
2022-10-11T07:34:05.504Z,41.60
2022-10-11T07:36:33.453Z,40.10
2022-10-11T07:39:07.008Z,39.70
2022-10-11T07:41:35.466Z,38.80
2022-10-11T07:44:03.438Z,38.00
2022-10-11T07:46:31.753Z,35.00
2022-10-11T07:48:59.642Z,33.80
2022-10-11T07:51:27.517Z,35.20
2022-10-11T07:53:57.019Z,29.10
2022-10-11T07:56:28.098Z,30.00
2022-10-11T07:59:01.606Z,26.70
2022-10-11T08:01:30.926Z,25.00
2022-10-11T08:03:59.129Z,25.90
2022-10-11T08:06:31.828Z,26.10
2022-10-11T08:09:02.367Z,26.20
2022-10-11T08:11:34.738Z,25.80
2022-10-11T08:14:08.971Z,25.90
2022-10-11T08:16:39.063Z,26.20
2022-10-11T08:19:07.197Z,28.80
2022-10-11T08:21:35.148Z,25.40
2022-10-11T08:24:05.236Z,28.40
2022-10-11T08:26:34.814Z,28.80
2022-10-11T08:29:04.062Z,25.70
2022-10-11T08:31:35.427Z,25.40
2022-10-11T08:34:03.444Z,26.20
2022-10-11T08:36:31.567Z,25.40
2022-10-11T08:38:59.543Z,24.80
2022-10-11T08:41:46.225Z,24.50
2022-10-11T08:47:41.280Z,24.90
2022-10-11T08:50:18.611Z,25.70
2022-10-11T08:53:11.111Z,25.20
2022-10-11T08:55:44.232Z,23.30
2022-10-11T08:58:16.382Z,24.40
2022-10-11T09:00:47.526Z,25.80
2022-10-11T09:03:21.342Z,25.40
2022-10-11T09:06:01.253Z,26.10
2022-10-11T09:08:41.584Z,26.70
2022-10-11T09:11:21.637Z,25.10
2022-10-11T09:13:57.169Z,26.50
2022-10-11T09:16:57.899Z,27.60
2022-10-11T09:19:33.620Z,27.30
2022-10-11T09:22:20.135Z,27.00
2022-10-11T09:24:54.019Z,27.30
2022-10-11T09:27:57.680Z,25.50
2022-10-11T09:30:24.450Z,27.30
2022-10-11T09:33:02.646Z,26.00
2022-10-11T09:35:38.982Z,25.80
2022-10-11T09:38:30.537Z,25.70
2022-10-11T09:41:30.959Z,24.80
2022-10-11T09:43:59.161Z,27.00
2022-10-11T09:46:30.908Z,26.40
2022-10-11T09:49:02.894Z,24.40
2022-10-11T09:51:31.679Z,23.70
2022-10-11T09:54:02.750Z,24.10
2022-10-11T09:56:33.586Z,23.50
2022-10-11T09:59:21.562Z,23.80
2022-10-11T10:01:49.580Z,25.20
2022-10-11T10:04:17.798Z,26.10
2022-10-11T10:06:45.984Z,26.60
2022-10-11T10:09:31.077Z,26.20
2022-10-11T10:11:58.946Z,26.40
2022-10-11T10:14:31.421Z,28.50
2022-10-11T10:17:02.853Z,27.70
2022-10-11T10:19:54.808Z,26.80
2022-10-11T10:22:27.984Z,28.00
2022-10-11T10:24:58.363Z,28.50
2022-10-11T10:27:28.448Z,28.00
2022-10-11T10:30:16.288Z,25.50
2022-10-11T10:33:13.878Z,25.90
2022-10-11T10:35:47.760Z,25.50
2022-10-11T10:38:30.223Z,24.10
2022-10-11T10:41:03.364Z,22.80
2022-10-11T10:43:36.881Z,21.20
2022-10-11T10:46:32.385Z,18.50
2022-10-11T10:49:53.228Z,19.60
2022-10-11T10:52:46.209Z,20.00
2022-10-11T10:55:43.936Z,20.10
2022-10-11T10:58:29.808Z,20.40
2022-10-11T11:01:06.087Z,16.80
2022-10-11T11:03:48.589Z,9.30
2022-10-11T11:06:48.367Z,17.40
2022-10-11T11:09:38.028Z,18.90
2022-10-11T11:12:30.768Z,19.00
2022-10-11T11:15:32.603Z,18.90
2022-10-11T11:18:41.805Z,18.70
2022-10-11T11:21:28.695Z,17.80
2022-10-11T11:24:23.292Z,16.80
2022-10-11T11:27:33.113Z,17.60
2022-10-11T11:30:33.686Z,18.50
2022-10-11T11:33:19.886Z,18.30
2022-10-11T11:35:52.907Z,17.40
2022-10-11T11:38:32.497Z,17.10
2022-10-11T11:41:05.355Z,19.90
2022-10-11T11:43:56.329Z,17.10
2022-10-11T11:46:30.418Z,16.20
2022-10-11T11:49:02.826Z,17.00
2022-10-11T11:51:35.356Z,16.80
2022-10-11T11:54:15.365Z,15.80
2022-10-11T11:56:59.743Z,15.90
2022-10-11T11:59:44.961Z,14.90
2022-10-11T12:02:50.104Z,15.90
2022-10-11T12:05:22.888Z,15.00
2022-10-11T12:07:59.864Z,14.50
2022-10-11T12:10:53.465Z,13.80
2022-10-11T12:13:41.024Z,14.00
2022-10-11T12:16:17.516Z,15.20
2022-10-11T12:18:57.647Z,15.10
2022-10-11T12:21:40.991Z,15.70
2022-10-11T12:24:21.119Z,14.70
2022-10-11T12:27:10.850Z,15.80
2022-10-11T12:29:44.815Z,15.50
2022-10-11T12:32:28.207Z,15.30
2022-10-11T12:35:31.668Z,15.30
2022-10-11T12:38:26.079Z,15.10
2022-10-11T12:41:18.302Z,15.70
2022-10-11T12:43:49.119Z,14.50
2022-10-11T12:46:29.277Z,13.80
2022-10-11T12:49:21.478Z,14.00
2022-10-11T12:52:00.262Z,14.10
2022-10-11T12:54:49.972Z,15.70
2022-10-11T12:57:56.838Z,16.40
2022-10-11T13:00:29.198Z,16.70
2022-10-11T13:03:01.325Z,16.40
2022-10-11T13:05:45.342Z,18.50
2022-10-11T13:08:25.593Z,18.00
2022-10-11T13:10:57.206Z,18.90
2022-10-11T13:13:32.034Z,17.80
2022-10-11T13:16:08.780Z,16.40
2022-10-11T13:18:36.919Z,17.00
2022-10-11T13:21:25.865Z,17.00
2022-10-11T13:24:16.495Z,14.50
2022-10-11T13:26:46.808Z,15.00
2022-10-11T13:29:18.596Z,14.70
2022-10-11T13:31:48.435Z,14.50
2022-10-11T13:34:22.365Z,14.60
2022-10-11T13:36:58.765Z,13.30
2022-10-11T13:39:34.486Z,14.60
2022-10-11T13:42:09.097Z,14.00
2022-10-11T13:44:39.404Z,13.50
2022-10-11T13:47:16.078Z,13.70
2022-10-11T13:50:23.313Z,13.10
2022-10-11T13:53:02.299Z,12.10
2022-10-11T13:55:42.553Z,13.10
2022-10-11T13:58:18.894Z,12.60
2022-10-11T14:01:03.224Z,13.00
2022-10-11T14:03:40.716Z,13.20
2022-10-11T14:06:09.274Z,12.70
2022-10-11T14:08:47.818Z,11.50
2022-10-11T14:11:16.331Z,12.90
2022-10-11T14:13:50.296Z,11.40
2022-10-11T14:16:21.200Z,11.70
2022-10-11T14:18:51.761Z,11.70
2022-10-11T14:21:19.605Z,11.20
2022-10-11T14:23:51.371Z,11.80
2022-10-11T14:26:20.422Z,11.50
2022-10-11T14:28:53.861Z,11.80
2022-10-11T14:31:23.276Z,12.10
2022-10-11T14:33:51.300Z,11.50
2022-10-11T14:36:22.873Z,11.90
2022-10-11T14:38:54.006Z,11.00
2022-10-11T14:41:22.052Z,11.90
2022-10-11T14:43:50.379Z,11.40
2022-10-11T14:46:24.490Z,11.10
2022-10-11T14:48:55.929Z,10.90
2022-10-11T14:51:30.854Z,11.20
2022-10-11T14:53:58.939Z,13.20
2022-10-11T14:56:27.032Z,11.80
2022-10-11T14:58:54.943Z,12.30
2022-10-11T15:01:22.887Z,11.50
2022-10-11T15:03:50.759Z,10.50
2022-10-11T15:06:32.167Z,10.80
2022-10-11T15:09:00.171Z,13.90
2022-10-11T15:11:28.597Z,11.90
2022-10-11T15:13:57.075Z,11.80
2022-10-11T15:16:26.972Z,11.50
2022-10-11T15:18:54.853Z,11.70
2022-10-11T15:21:25.082Z,11.50
2022-10-11T15:23:54.796Z,11.10
2022-10-11T15:26:26.043Z,11.70
2022-10-11T15:28:55.875Z,11.70
2022-10-11T15:31:24.523Z,11.90
2022-10-11T15:33:52.451Z,11.00
2022-10-11T15:36:22.766Z,11.90
2022-10-11T15:38:51.015Z,11.90
2022-10-11T15:41:20.204Z,12.20
2022-10-11T15:43:49.430Z,11.20
2022-10-11T15:46:22.390Z,11.90
2022-10-11T15:48:51.913Z,12.40
2022-10-11T15:51:19.830Z,11.70
2022-10-11T15:53:47.716Z,12.60
2022-10-11T15:56:18.793Z,13.30
2022-10-11T15:58:46.763Z,14.00
2022-10-11T16:01:19.928Z,13.40
2022-10-11T16:03:49.690Z,14.00
2022-10-11T16:06:19.055Z,13.30
2022-10-11T16:08:47.795Z,13.80
2022-10-11T16:11:15.843Z,16.10
2022-10-11T16:13:45.136Z,15.80
2022-10-11T16:16:13.041Z,14.20
2022-10-11T16:18:41.085Z,14.50
2022-10-11T16:21:11.263Z,14.50
2022-10-11T16:23:39.552Z,14.70
2022-10-11T16:26:11.981Z,14.50
2022-10-11T16:28:40.309Z,14.70
2022-10-11T16:31:14.915Z,13.80
2022-10-11T16:33:46.280Z,13.20
2022-10-11T16:36:36.812Z,14.10
2022-10-11T16:39:14.754Z,13.40
2022-10-11T16:41:43.010Z,12.80
2022-10-11T16:44:20.183Z,13.30
2022-10-11T16:46:49.181Z,13.80
2022-10-11T16:49:19.917Z,13.60
2022-10-11T16:51:48.235Z,12.90
2022-10-11T16:54:20.556Z,14.00
2022-10-11T16:56:50.125Z,64.70
2022-10-11T16:59:18.837Z,18.30
2022-10-11T17:01:46.820Z,14.00
2022-10-11T17:04:15.344Z,13.60
2022-10-11T17:06:44.056Z,14.50
2022-10-11T17:09:12.801Z,13.80
2022-10-11T17:11:40.848Z,14.40
2022-10-11T17:14:09.240Z,20.90
2022-10-11T17:16:37.270Z,19.50
2022-10-11T17:19:08.799Z,16.00
2022-10-11T17:21:36.790Z,15.70
2022-10-11T17:24:05.046Z,14.30
2022-10-11T17:26:33.085Z,14.70
2022-10-11T17:29:01.476Z,15.60
2022-10-11T17:31:30.115Z,15.50
2022-10-11T17:33:59.561Z,14.20
2022-10-11T17:36:34.207Z,14.40
2022-10-11T17:39:05.111Z,14.60
2022-10-11T17:41:33.591Z,14.00
2022-10-11T17:44:03.238Z,14.60
2022-10-11T17:46:33.893Z,14.80
2022-10-11T17:49:05.815Z,14.00
2022-10-11T17:51:35.856Z,14.50
2022-10-11T17:54:04.347Z,14.10
2022-10-11T17:56:37.371Z,16.10
2022-10-11T17:59:06.426Z,16.30
2022-10-11T18:01:34.367Z,16.90
2022-10-11T18:04:04.926Z,17.80
2022-10-11T18:06:38.709Z,18.70
2022-10-11T18:09:07.248Z,17.80
2022-10-11T18:11:35.662Z,16.80
2022-10-11T18:14:05.326Z,16.60
2022-10-11T18:16:33.949Z,16.00
2022-10-11T18:19:04.602Z,15.50
2022-10-11T18:21:34.732Z,16.00
2022-10-11T18:24:10.979Z,16.30
2022-10-11T18:26:44.148Z,16.60
2022-10-11T18:29:15.485Z,16.90
2022-10-11T18:31:43.644Z,16.20
2022-10-11T18:34:13.069Z,16.50
2022-10-11T18:36:41.009Z,17.20
2022-10-11T18:39:13.102Z,17.20
2022-10-11T18:41:44.525Z,16.90
2022-10-11T18:44:15.166Z,16.90
2022-10-11T18:46:44.305Z,16.60
2022-10-11T18:49:13.602Z,16.50
2022-10-11T18:51:42.284Z,17.50
2022-10-11T18:54:14.056Z,17.50
2022-10-11T18:56:47.620Z,16.60
2022-10-11T18:59:19.232Z,15.60
2022-10-11T19:01:52.140Z,16.40
2022-10-11T19:04:20.982Z,17.80
2022-10-11T19:06:53.687Z,17.30
2022-10-11T19:09:24.591Z,16.40
2022-10-11T19:11:57.597Z,17.60
2022-10-11T19:14:28.812Z,17.20
2022-10-11T19:17:04.460Z,17.20
2022-10-11T19:19:47.856Z,16.80
2022-10-11T19:22:35.062Z,16.20
2022-10-11T19:25:08.259Z,16.40
2022-10-11T19:27:36.233Z,16.60
2022-10-11T19:30:06.021Z,15.70
2022-10-11T19:32:33.970Z,15.50
2022-10-11T19:35:02.300Z,15.80
2022-10-11T19:37:30.658Z,16.70
2022-10-11T19:39:59.100Z,16.40
2022-10-11T19:43:47.416Z,15.40
2022-10-11T19:49:14.215Z,16.00
2022-10-11T19:51:45.954Z,15.30
2022-10-11T19:54:19.660Z,14.60
2022-10-11T19:57:14.869Z,14.80
2022-10-11T20:01:12.971Z,15.20
2022-10-11T20:03:45.379Z,14.50
2022-10-11T20:06:26.839Z,15.50
2022-10-11T20:19:03.905Z,15.10
2022-10-11T20:21:34.700Z,15.10
2022-10-11T20:24:12.076Z,15.60
2022-10-11T20:56:24.358Z,13.40
